Time;durP1;ratioP1;P1;durP2;ratioP2;P2;SDS_P1;SDS_P2;PMS_P1;PMS_P2;Temp;Humidity;BMP_temperature;BMP_pressure;BME280_temperature;BME280_humidity;BME280_pressure;Samples;Min_cycle;Max_cycle;Signal;HPM_P1;HPM_P2
2022/03/13 00:00:37;;;;;;;;;;;7.40;99.90;;;;;;5067339;28;20055;-81
2022/03/13 00:03:04;;;;;;;;;;;7.40;99.90;;;;;;5069192;28;20584;-80
2022/03/13 00:05:29;;;;;;;15.20;10.27;;;7.40;99.90;;;;;;5046961;28;20264;-81
2022/03/13 00:07:56;;;;;;;15.18;10.38;;;7.30;99.90;;;;;;5069632;28;20065;-82
2022/03/13 00:10:27;;;;;;;13.73;9.52;;;7.30;99.90;;;;;;5009302;28;20033;-81
2022/03/13 00:12:54;;;;;;;13.75;10.40;;;7.30;99.90;;;;;;5068285;28;20107;-81
2022/03/13 00:15:38;;;;;;;13.98;10.18;;;7.30;99.90;;;;;;5068742;28;20365;-82
2022/03/13 00:18:04;;;;;;;15.20;10.88;;;7.30;99.90;;;;;;5051649;28;20098;-81
2022/03/13 00:20:31;;;;;;;13.57;9.18;;;7.30;99.90;;;;;;5068869;28;20076;-81
2022/03/13 00:22:57;;;;;;;13.70;9.77;;;7.20;99.90;;;;;;5034521;28;20504;-81
2022/03/13 00:25:23;;;;;;;15.52;11.13;;;7.20;99.90;;;;;;5051882;28;20040;-81
2022/03/13 00:27:49;;;;;;;14.82;10.48;;;7.10;99.90;;;;;;5067805;28;20044;-81
2022/03/13 00:30:16;;;;;;;13.70;10.68;;;7.20;99.90;;;;;;5048658;28;20048;-82
2022/03/13 00:32:42;;;;;;;13.43;10.80;;;7.30;99.90;;;;;;5052221;28;20040;-81
2022/03/13 00:35:08;;;;;;;14.85;11.00;;;7.30;99.90;;;;;;5063629;28;20430;-80
2022/03/13 00:37:33;;;;;;;14.00;9.98;;;7.30;99.90;;;;;;5051366;28;20475;-82
2022/03/13 00:40:00;;;;;;;13.20;10.00;;;7.30;99.90;;;;;;5067618;28;20555;-81
2022/03/13 00:42:26;;;;;;;20.52;12.48;;;7.30;99.90;;;;;;5051389;28;20050;-81
2022/03/13 00:44:52;;;;;;;15.95;11.20;;;7.30;99.90;;;;;;5051342;28;20047;-82
2022/03/13 00:47:19;;;;;;;19.42;12.13;;;7.30;99.90;;;;;;5068154;28;20041;-81
2022/03/13 00:49:49;;;;;;;16.92;11.98;;;7.30;99.90;;;;;;5068351;28;20404;-81
2022/03/13 00:52:17;;;;;;;20.25;12.00;;;7.30;99.90;;;;;;5067730;28;20396;-81
2022/03/13 00:54:43;;;;;;;15.85;11.27;;;7.30;99.90;;;;;;5051593;28;20529;-81
2022/03/13 00:57:09;;;;;;;16.13;11.90;;;7.30;99.90;;;;;;5067631;28;20051;-80
2022/03/13 00:59:35;;;;;;;13.82;11.15;;;7.30;99.90;;;;;;5068741;28;20066;-81
2022/03/13 01:02:01;;;;;;;16.27;10.85;;;7.20;99.90;;;;;;5067761;28;20333;-81
2022/03/13 01:04:27;;;;;;;15.80;11.18;;;7.20;99.90;;;;;;5070255;28;20032;-80
2022/03/13 01:06:52;;;;;;;16.45;11.60;;;7.20;99.90;;;;;;5021169;28;20414;-80
2022/03/13 01:09:18;;;;;;;15.85;11.88;;;7.20;99.90;;;;;;5054934;28;20025;-81
2022/03/13 01:11:44;;;;;;;17.15;11.40;;;7.20;99.90;;;;;;5071459;28;20033;-81
2022/03/13 01:14:10;;;;;;;16.30;11.15;;;7.20;99.90;;;;;;5067151;28;20410;-81
2022/03/13 01:16:39;;;;;;;17.08;11.63;;;7.20;99.90;;;;;;5071966;28;20094;-82
2022/03/13 01:19:05;;;;;;;16.30;11.88;;;7.20;99.90;;;;;;5054239;28;20123;-80
2022/03/13 01:21:37;;;;;;;15.77;11.52;;;7.30;99.90;;;;;;5055124;28;20048;-81
2022/03/13 01:24:06;;;;;;;18.05;12.20;;;7.30;99.90;;;;;;5054150;28;20043;-81
2022/03/13 01:26:34;;;;;;;16.05;11.80;;;7.30;99.90;;;;;;5071515;28;20054;-81
2022/03/13 01:29:03;;;;;;;20.10;12.77;;;7.30;99.90;;;;;;5054535;28;20048;-80
2022/03/13 01:31:33;;;;;;;16.73;12.20;;;7.30;99.90;;;;;;5054854;28;20048;-81
2022/03/13 01:34:00;;;;;;;17.13;12.00;;;7.30;99.90;;;;;;5070910;28;20088;-82
2022/03/13 01:36:25;;;;;;;;;;;7.40;99.90;;;;;;5072067;28;20080;-82
2022/03/13 01:38:56;;;;;;;18.27;12.32;;;7.30;99.90;;;;;;5054417;28;19958;-81
2022/03/13 01:41:24;;;;;;;16.55;12.60;;;7.30;99.90;;;;;;5047188;28;20036;-82
2022/03/13 01:43:50;;;;;;;16.98;12.40;;;7.30;99.90;;;;;;5054267;28;20045;-81
2022/03/13 01:46:17;;;;;;;16.02;12.02;;;7.20;99.90;;;;;;5070929;28;20369;-81
2022/03/13 01:49:06;;;;;;;17.13;12.30;;;7.20;99.90;;;;;;5054562;28;20135;-81
2022/03/13 01:51:33;;;;;;;18.75;11.93;;;7.20;99.90;;;;;;5054544;28;20048;-81
2022/03/13 01:54:04;;;;;;;15.30;11.60;;;7.10;99.90;;;;;;5054045;28;20151;-81
2022/03/13 01:56:33;;;;;;;16.67;11.85;;;7.10;99.90;;;;;;5070569;28;20510;-80
2022/03/13 01:58:59;;;;;;;15.52;11.65;;;7.10;99.90;;;;;;5054265;28;20433;-81
2022/03/13 02:01:27;;;;;;;15.05;11.32;;;7.10;99.90;;;;;;5054077;28;20036;-81
2022/03/13 02:03:54;;;;;;;16.65;11.25;;;7.10;99.90;;;;;;5054050;28;20048;-81
2022/03/13 02:06:25;;;;;;;15.00;11.45;;;7.10;99.90;;;;;;5054113;28;20039;-81
2022/03/13 02:08:51;;;;;;;18.83;13.05;;;7.00;99.90;;;;;;5070937;28;20352;-81
2022/03/13 02:11:22;;;;;;;15.98;12.30;;;7.10;99.90;;;;;;5054018;28;20059;-81
2022/03/13 02:13:50;;;;;;;15.65;11.23;;;7.10;99.90;;;;;;5053758;28;20488;-81
2022/03/13 02:16:17;;;;;;;15.63;11.25;;;7.10;99.90;;;;;;5070322;28;20476;-81
2022/03/13 02:18:48;;;;;;;15.70;11.63;;;7.00;99.90;;;;;;5054106;28;20033;-81
2022/03/13 02:21:16;;;;;;;15.48;11.07;;;7.00;99.90;;;;;;5071056;28;20154;-81
2022/03/13 02:23:42;;;;;;;16.58;12.07;;;7.00;99.90;;;;;;5054051;28;20040;-80
2022/03/13 02:26:11;;;;;;;15.02;11.05;;;7.00;99.90;;;;;;5070206;28;20033;-79
2022/03/13 02:28:42;;;;;;;15.60;10.65;;;7.00;99.90;;;;;;5070151;28;20043;-79
2022/03/13 02:31:26;;;;;;;16.95;12.45;;;7.00;99.90;;;;;;5070212;28;20040;-79
2022/03/13 02:33:56;;;;;;;15.40;11.45;;;7.00;99.90;;;;;;5064527;28;20037;-79
2022/03/13 02:36:32;;;;;;;16.42;11.68;;;7.00;99.90;;;;;;5053553;28;20391;-78
2022/03/13 02:39:03;;;;;;;19.95;12.57;;;7.00;99.90;;;;;;5071191;28;20120;-79
2022/03/13 02:41:29;;;;;;;15.05;11.10;;;6.90;99.90;;;;;;5055494;28;20136;-78
2022/03/13 02:43:56;;;;;;;13.45;10.00;;;6.90;99.90;;;;;;5072786;28;20147;-78
2022/03/13 02:46:23;;;;;;;;;;;6.90;99.90;;;;;;5072773;28;20389;-78
2022/03/13 02:48:50;;;;;;;14.13;10.05;;;6.90;99.90;;;;;;5071940;28;19917;-78
2022/03/13 02:51:16;;;;;;;13.50;10.07;;;7.00;99.90;;;;;;5033208;28;20036;-78
2022/03/13 02:53:42;;;;;;;15.00;10.45;;;7.00;99.90;;;;;;5070820;28;20048;-78
2022/03/13 02:56:08;;;;;;;13.73;10.38;;;7.00;99.90;;;;;;5048211;28;20087;-80
2022/03/13 02:58:35;;;;;;;14.07;10.45;;;7.00;99.90;;;;;;5051075;28;20119;-81
2022/03/13 03:01:00;;;;;;;15.68;11.00;;;7.10;99.90;;;;;;5066322;28;20036;-81
2022/03/13 03:03:26;;;;;;;16.33;11.48;;;7.00;99.90;;;;;;5052754;28;20105;-81
2022/03/13 03:05:53;;;;;;;15.75;11.60;;;7.00;99.90;;;;;;5069001;28;20058;-81
2022/03/13 03:08:19;;;;;;;15.63;11.25;;;7.00;99.90;;;;;;5068679;28;20044;-81
2022/03/13 03:10:45;;;;;;;14.50;9.88;;;7.00;99.90;;;;;;5051658;28;20028;-81
2022/03/13 03:13:13;;;;;;;13.48;9.50;;;6.90;99.90;;;;;;5036918;28;20029;-81
2022/03/13 03:15:39;;;;;;;13.63;10.40;;;6.90;99.90;;;;;;5069441;28;20045;-81
2022/03/13 03:18:09;;;;;;;13.30;10.48;;;6.90;99.90;;;;;;5053204;28;20102;-82
2022/03/13 03:20:35;;;;;;;13.82;10.63;;;6.90;99.90;;;;;;5053095;28;20040;-81
2022/03/13 03:23:02;;;;;;;15.27;10.77;;;6.90;99.90;;;;;;5053270;28;20028;-81
2022/03/13 03:25:28;;;;;;;;;;;6.90;99.90;;;;;;5053273;28;20037;-81
2022/03/13 03:27:55;;;;;;;15.23;10.93;;;6.90;99.90;;;;;;5052397;28;19929;-81
2022/03/13 03:30:24;;;;;;;14.57;11.15;;;6.90;99.90;;;;;;5069232;28;20036;-81
2022/03/13 03:32:51;;;;;;;15.93;11.70;;;6.90;99.90;;;;;;5069656;28;20049;-81
2022/03/13 03:35:19;;;;;;;16.10;12.20;;;6.80;99.90;;;;;;5069322;28;20037;-81
2022/03/13 03:37:45;;;;;;;17.55;12.02;;;6.80;99.90;;;;;;5069094;28;20113;-81
2022/03/13 03:40:12;;;;;;;15.50;11.57;;;6.80;99.90;;;;;;5069198;28;20074;-81
2022/03/13 03:42:38;;;;;;;15.52;11.70;;;6.70;99.90;;;;;;5069428;28;20506;-81
2022/03/13 03:45:04;;;;;;;16.15;12.25;;;6.70;99.90;;;;;;5066673;28;20075;-81
2022/03/13 03:47:30;;;;;;;17.05;12.88;;;6.70;99.90;;;;;;5063769;28;20053;-81
2022/03/13 03:49:56;;;;;;;18.13;13.27;;;6.70;99.90;;;;;;5051539;28;20082;-81
2022/03/13 03:52:22;;;;;;;15.23;11.52;;;6.60;99.90;;;;;;5069124;28;20479;-81
2022/03/13 03:54:48;;;;;;;15.32;11.20;;;6.60;99.90;;;;;;5052616;28;20086;-81
2022/03/13 03:57:13;;;;;;;17.83;12.27;;;6.60;99.90;;;;;;5052404;28;20521;-81
2022/03/13 03:59:39;;;;;;;16.25;12.10;;;6.60;99.90;;;;;;5068936;28;20052;-83
2022/03/13 04:02:05;;;;;;;14.05;10.73;;;6.60;99.90;;;;;;5068513;28;20048;-82
2022/03/13 04:04:30;;;;;;;14.85;11.40;;;6.50;99.90;;;;;;5069107;28;20076;-82
2022/03/13 04:06:56;;;;;;;17.65;11.75;;;6.50;99.90;;;;;;5068870;28;20043;-82
2022/03/13 04:09:22;;;;;;;16.40;12.68;;;6.50;99.90;;;;;;5068602;28;20064;-82
2022/03/13 04:11:48;;;;;;;17.42;13.00;;;6.50;99.90;;;;;;5068880;28;20048;-82
2022/03/13 04:14:14;;;;;;;16.55;12.30;;;6.50;99.90;;;;;;5068541;28;20033;-82
2022/03/13 04:16:41;;;;;;;17.55;12.50;;;6.40;99.90;;;;;;5068824;28;20056;-82
2022/03/13 04:19:09;;;;;;;16.65;12.40;;;6.40;99.90;;;;;;5068389;28;20583;-82
2022/03/13 04:21:40;;;;;;;18.40;12.65;;;6.40;99.90;;;;;;5052605;28;20076;-82
2022/03/13 04:24:13;;;;;;;18.05;12.65;;;6.40;99.90;;;;;;5068019;28;20045;-81
2022/03/13 04:26:40;;;;;;;18.00;13.07;;;6.40;99.90;;;;;;5036149;28;20052;-82
2022/03/13 04:29:09;;;;;;;18.80;12.90;;;6.30;99.90;;;;;;5052191;28;20045;-81
2022/03/13 04:31:39;;;;;;;19.55;12.95;;;6.30;99.90;;;;;;5068077;28;20074;-81
2022/03/13 04:34:04;;;;;;;16.40;12.25;;;6.30;99.90;;;;;;5051464;28;20045;-81
2022/03/13 04:36:32;;;;;;;18.25;13.13;;;6.20;99.90;;;;;;5052178;28;20139;-81
2022/03/13 04:38:59;;;;;;;19.13;13.30;;;6.20;99.90;;;;;;5069467;28;20041;-81
2022/03/13 04:41:25;;;;;;;19.00;13.48;;;6.20;99.90;;;;;;5056067;28;20411;-81
2022/03/13 04:43:53;;;;;;;18.98;13.38;;;6.20;99.90;;;;;;5072176;28;20052;-81
2022/03/13 04:46:18;;;;;;;19.52;13.30;;;6.20;99.90;;;;;;5038243;28;20052;-81
2022/03/13 04:48:44;;;;;;;17.38;13.20;;;6.20;99.90;;;;;;5055990;28;20047;-82
2022/03/13 04:51:10;;;;;;;16.88;12.75;;;6.20;99.90;;;;;;5072951;28;20083;-82
2022/03/13 04:53:36;;;;;;;19.70;13.18;;;6.20;99.90;;;;;;5056092;28;20048;-81
2022/03/13 04:56:02;;;;;;;16.35;12.48;;;6.20;99.90;;;;;;5072613;28;20048;-81
2022/03/13 04:58:28;;;;;;;19.00;13.05;;;6.20;99.90;;;;;;5072457;28;20040;-82
2022/03/13 05:00:54;;;;;;;17.35;13.02;;;6.20;99.90;;;;;;5071715;28;20040;-82
2022/03/13 05:03:20;;;;;;;17.90;13.13;;;6.20;99.90;;;;;;5071376;28;20124;-80
2022/03/13 05:05:46;;;;;;;19.27;14.43;;;6.20;99.90;;;;;;5071548;28;20376;-81
2022/03/13 05:08:14;;;;;;;19.50;13.32;;;6.30;99.90;;;;;;5055441;28;20079;-81
2022/03/13 05:10:41;;;;;;;16.42;12.70;;;6.30;99.90;;;;;;5071200;28;20044;-81
2022/03/13 05:13:12;;;;;;;19.65;13.68;;;6.30;99.90;;;;;;5071763;28;20044;-81
2022/03/13 05:15:37;;;;;;;18.52;13.30;;;6.20;99.90;;;;;;5072049;28;20488;-82
2022/03/13 05:18:04;;;;;;;19.15;12.15;;;6.20;99.90;;;;;;5047335;28;20048;-81
2022/03/13 05:20:31;;;;;;;17.80;12.80;;;6.10;99.90;;;;;;5056922;28;20198;-81
2022/03/13 05:22:57;;;;;;;18.33;11.93;;;6.10;99.90;;;;;;5072827;28;20040;-81
2022/03/13 05:25:23;;;;;;;19.23;12.48;;;6.00;99.90;;;;;;5055330;28;20036;-81
2022/03/13 05:27:50;;;;;;;17.27;12.25;;;6.00;99.90;;;;;;5072406;28;20110;-80
2022/03/13 05:30:17;;;;;;;16.70;13.02;;;5.90;99.90;;;;;;5071769;28;20044;-81
2022/03/13 05:32:43;;;;;;;;;;;5.90;99.90;;;;;;5072240;28;20044;-81
2022/03/13 05:35:10;;;;;;;17.17;11.68;;;5.80;99.90;;;;;;5055262;28;19923;-80
2022/03/13 05:37:36;;;;;;;15.30;11.15;;;5.80;99.90;;;;;;5071903;28;20041;-81
2022/03/13 05:40:03;;;;;;;;;;;5.70;99.90;;;;;;5038702;28;20051;-81
2022/03/13 05:42:29;;;;;;;17.60;11.65;;;5.70;99.90;;;;;;5071020;28;20018;-81
2022/03/13 05:44:55;;;;;;;14.38;11.23;;;5.70;99.90;;;;;;5050877;28;20062;-81
2022/03/13 05:47:21;;;;;;;13.50;10.18;;;5.70;99.90;;;;;;5054423;28;20492;-81
2022/03/13 05:49:47;;;;;;;14.63;10.52;;;5.70;99.90;;;;;;5054665;28;20051;-82
2022/03/13 05:52:14;;;;;;;16.85;11.35;;;5.70;99.90;;;;;;5054646;28;20115;-80
2022/03/13 05:54:44;;;;;;;15.30;11.20;;;5.70;99.90;;;;;;5063185;28;20070;-80
2022/03/13 05:57:10;;;;;;;14.93;10.88;;;5.70;99.90;;;;;;5071256;28;20047;-81
2022/03/13 05:59:39;;;;;;;;;;;5.70;99.90;;;;;;5071813;28;20048;-80
2022/03/13 06:02:06;;;;;;;18.98;12.25;;;5.70;99.90;;;;;;5071039;28;19923;-82
2022/03/13 06:04:35;;;;;;;19.23;12.23;;;5.70;99.90;;;;;;5053747;28;20045;-81
2022/03/13 06:07:01;;;;;;;18.25;11.55;;;5.70;99.90;;;;;;5071295;28;20076;-81
2022/03/13 06:09:26;;;;;;;15.45;11.32;;;5.70;99.90;;;;;;5071113;28;20075;-81
2022/03/13 06:11:52;;;;;;;16.83;11.23;;;5.80;99.90;;;;;;5054566;28;20143;-82
2022/03/13 06:14:18;;;;;;;13.93;10.77;;;5.80;99.90;;;;;;5070938;28;20049;-81
2022/03/13 06:16:44;;;;;;;14.77;10.77;;;5.80;99.90;;;;;;5053672;28;20290;-82
2022/03/13 06:19:10;;;;;;;18.42;11.65;;;5.80;99.90;;;;;;5054082;28;20036;-81
2022/03/13 06:21:39;;;;;;;15.02;10.93;;;5.90;99.90;;;;;;5070745;28;20064;-81
2022/03/13 06:24:05;;;;;;;15.32;11.00;;;5.90;99.90;;;;;;5053854;28;20487;-80
2022/03/13 06:26:31;;;;;;;16.30;11.85;;;6.00;99.90;;;;;;5070439;28;20045;-81
2022/03/13 06:28:57;;;;;;;17.38;11.50;;;6.00;99.90;;;;;;5053756;28;20029;-81
2022/03/13 06:31:23;;;;;;;15.75;11.20;;;6.00;99.90;;;;;;5034422;28;20033;-80
2022/03/13 06:33:48;;;;;;;15.80;10.73;;;6.00;99.90;;;;;;5053291;28;20036;-80
2022/03/13 06:36:14;;;;;;;17.73;11.25;;;6.00;99.90;;;;;;5053982;28;20043;-81
2022/03/13 06:38:40;;;;;;;14.18;10.40;;;6.10;99.90;;;;;;5053453;28;20040;-81
2022/03/13 06:41:06;;;;;;;15.63;11.77;;;6.10;99.90;;;;;;5070571;28;20169;-81
2022/03/13 06:43:34;;;;;;;15.07;11.18;;;6.10;99.90;;;;;;5053096;28;20083;-82
2022/03/13 06:46:01;;;;;;;16.27;11.75;;;6.10;99.90;;;;;;5070173;28;20487;-81
2022/03/13 06:48:26;;;;;;;;;;;6.00;99.90;;;;;;5053870;28;20051;-81
2022/03/13 06:50:53;;;;;;;14.88;10.73;;;6.10;99.90;;;;;;5053316;28;19916;-82
2022/03/13 06:53:19;;;;;;;;;;;6.10;99.90;;;;;;5035294;28;20045;-81
2022/03/13 06:55:45;;;;;;;15.75;11.73;;;6.10;99.90;;;;;;5069851;28;19920;-81
2022/03/13 06:58:10;;;;;;;14.45;10.98;;;6.10;99.90;;;;;;5070307;28;20040;-81
2022/03/13 07:00:36;;;;;;;17.27;11.07;;;6.10;99.90;;;;;;5069721;28;20446;-81
2022/03/13 07:03:02;;;;;;;14.07;10.05;;;6.10;99.90;;;;;;5052930;28;20092;-82
2022/03/13 07:05:28;;;;;;;16.55;11.40;;;6.10;99.90;;;;;;5045149;28;20046;-81
2022/03/13 07:07:58;;;;;;;13.68;10.52;;;6.20;99.90;;;;;;5069884;28;20402;-81
2022/03/13 07:10:23;;;;;;;14.95;10.93;;;6.20;99.90;;;;;;5052571;28;20494;-82
2022/03/13 07:12:50;;;;;;;13.60;10.50;;;6.30;99.90;;;;;;5069855;28;20040;-81
2022/03/13 07:15:16;;;;;;;14.65;11.20;;;6.30;99.90;;;;;;5069804;28;20055;-81
2022/03/13 07:17:44;;;;;;;17.08;11.02;;;6.30;99.90;;;;;;5052839;28;20040;-81
2022/03/13 07:20:10;;;;;;;15.00;10.93;;;6.40;99.90;;;;;;5069405;28;20044;-81
2022/03/13 07:22:36;;;;;;;14.57;10.95;;;6.50;99.90;;;;;;5052791;28;20040;-81
2022/03/13 07:25:03;;;;;;;17.05;11.07;;;6.50;99.90;;;;;;5052833;28;20036;-81
2022/03/13 07:27:29;;;;;;;14.77;11.07;;;6.60;99.90;;;;;;5069355;28;20052;-81
2022/03/13 07:29:54;;;;;;;14.68;10.65;;;6.60;99.90;;;;;;5052614;28;20374;-81
2022/03/13 07:32:20;;;;;;;18.00;11.15;;;6.60;99.90;;;;;;5052307;28;20036;-81
2022/03/13 07:34:46;;;;;;;18.95;11.27;;;6.70;99.90;;;;;;5069106;28;20496;-81
2022/03/13 07:37:12;;;;;;;15.52;10.45;;;6.70;99.90;;;;;;5035964;28;20131;-81
2022/03/13 07:39:41;;;;;;;16.75;11.43;;;6.70;99.90;;;;;;5052031;28;20157;-81
2022/03/13 07:42:09;;;;;;;15.35;11.63;;;6.70;99.90;;;;;;5052933;28;20048;-81
2022/03/13 07:44:35;;;;;;;14.90;11.38;;;6.80;99.90;;;;;;5068794;28;20460;-81
2022/03/13 07:47:01;;;;;;;15.25;10.70;;;6.80;99.90;;;;;;5068907;28;20076;-82
2022/03/13 07:49:27;;;;;;;16.48;11.25;;;6.80;99.90;;;;;;5052521;28;20045;-81
2022/03/13 07:51:52;;;;;;;19.50;11.18;;;6.70;99.90;;;;;;5051962;28;20040;-82
2022/03/13 07:54:20;;;;;;;15.23;11.10;;;6.80;99.90;;;;;;5052138;28;20079;-80
2022/03/13 07:56:46;;;;;;;16.02;11.98;;;6.80;99.90;;;;;;5032369;28;20094;-81
2022/03/13 07:59:12;;;;;;;14.05;10.57;;;6.80;99.90;;;;;;5051259;28;20048;-81
2022/03/13 08:01:37;;;;;;;15.68;10.63;;;6.90;99.90;;;;;;5048505;28;20081;-81
2022/03/13 08:04:05;;;;;;;15.13;10.65;;;6.90;99.90;;;;;;5031540;28;20045;-83
2022/03/13 08:06:35;;;;;;;13.57;10.73;;;7.00;99.90;;;;;;5052293;28;20032;-80
2022/03/13 08:09:05;;;;;;;14.02;10.55;;;7.00;99.90;;;;;;5068805;28;20106;-81
2022/03/13 08:11:35;;;;;;;15.65;10.55;;;7.10;99.90;;;;;;5069471;28;20063;-80
2022/03/13 08:14:03;;;;;;;15.00;10.35;;;7.20;99.90;;;;;;5050910;28;20048;-82
2022/03/13 08:16:29;;;;;;;13.27;10.00;;;7.20;99.90;;;;;;5068505;28;20052;-83
2022/03/13 08:18:55;;;;;;;15.77;10.98;;;7.40;99.90;;;;;;5032023;28;20052;-82
2022/03/13 08:21:21;;;;;;;13.02;10.23;;;7.50;99.90;;;;;;5053667;28;20045;-82
2022/03/13 08:23:46;;;;;;;13.57;10.25;;;7.50;99.90;;;;;;5031171;28;20171;-82
2022/03/13 08:26:12;;;;;;;12.82;9.68;;;7.60;99.90;;;;;;5050288;28;20117;-78
2022/03/13 08:28:41;;;;;;;12.63;9.65;;;7.80;99.90;;;;;;5068560;28;20048;-78
2022/03/13 08:31:07;;;;;;;14.10;10.13;;;8.00;99.90;;;;;;5068711;28;20070;-79
2022/03/13 08:33:33;;;;;;;;;;;8.10;99.90;;;;;;5052498;28;20522;-79
2022/03/13 08:35:59;;;;;;;13.50;9.65;;;8.30;99.90;;;;;;5030475;28;19943;-79
2022/03/13 08:38:24;;;;;;;14.65;10.35;;;8.40;99.90;;;;;;5066551;28;20495;-78
2022/03/13 08:40:50;;;;;;;15.07;10.45;;;8.60;99.90;;;;;;5041171;28;20045;-79
2022/03/13 08:43:16;;;;;;;13.23;9.82;;;8.70;99.90;;;;;;5062660;28;20040;-78
2022/03/13 08:45:42;;;;;;;13.20;10.07;;;8.80;99.90;;;;;;5051639;28;20124;-79
2022/03/13 08:48:08;;;;;;;13.43;10.20;;;8.90;99.90;;;;;;5051709;28;20039;-78
2022/03/13 08:50:34;;;;;;;12.35;9.75;;;9.10;99.90;;;;;;5051329;28;20384;-78
2022/03/13 08:53:01;;;;;;;11.88;8.90;;;9.20;99.20;;;;;;5051854;28;20051;-78
2022/03/13 08:55:27;;;;;;;15.20;9.98;;;9.40;99.00;;;;;;5068071;28;20403;-79
2022/03/13 08:57:53;;;;;;;12.27;9.40;;;9.50;98.20;;;;;;5068315;28;20120;-79
2022/03/13 09:00:21;;;;;;;13.95;9.88;;;9.60;98.10;;;;;;5067696;28;20474;-80
2022/03/13 09:02:47;;;;;;;13.52;9.90;;;9.60;96.30;;;;;;5068011;28;20070;-78
2022/03/13 09:05:13;;;;;;;;;;;9.60;95.90;;;;;;5052129;28;20029;-79
2022/03/13 09:07:39;;;;;;;11.85;9.40;;;9.60;95.90;;;;;;5051382;28;19943;-79
2022/03/13 09:10:11;;;;;;;12.70;9.93;;;9.70;96.40;;;;;;5067896;28;20072;-79
2022/03/13 09:12:37;;;;;;;14.02;9.25;;;9.80;95.60;;;;;;5052035;28;20052;-79
2022/03/13 09:15:04;;;;;;;12.50;9.48;;;9.80;95.50;;;;;;5034155;28;20045;-79
2022/03/13 09:17:30;;;;;;;14.57;9.95;;;9.70;94.50;;;;;;5068192;28;20040;-79
2022/03/13 09:19:56;;;;;;;14.75;9.75;;;9.70;94.30;;;;;;5050946;28;20110;-79
2022/03/13 09:22:22;;;;;;;;;;;9.70;94.30;;;;;;5052289;28;20052;-78
2022/03/13 09:24:49;;;;;;;12.88;10.10;;;9.70;94.20;;;;;;5068485;28;19920;-78
2022/03/13 09:27:14;;;;;;;12.30;9.65;;;9.80;94.80;;;;;;5037989;28;20041;-78
2022/03/13 09:29:40;;;;;;;13.07;9.95;;;9.80;94.40;;;;;;5071851;28;20040;-79
2022/03/13 09:32:07;;;;;;;10.82;8.82;;;9.90;94.00;;;;;;5071453;28;20483;-79
2022/03/13 09:34:34;;;;;;;12.20;9.50;;;10.00;94.00;;;;;;5071582;28;20037;-78
2022/03/13 09:37:00;;;;;;;11.93;8.73;;;10.00;93.70;;;;;;5071415;28;20044;-78
2022/03/13 09:39:25;;;;;;;13.00;9.30;;;10.10;93.80;;;;;;5071174;28;20040;-79
2022/03/13 09:41:52;;;;;;;12.18;9.30;;;10.20;93.10;;;;;;5054587;28;20126;-78
2022/03/13 09:44:19;;;;;;;12.98;9.85;;;10.20;93.30;;;;;;5071193;28;20041;-78
2022/03/13 09:46:44;;;;;;;12.88;9.75;;;10.30;93.20;;;;;;5054457;28;20053;-78
2022/03/13 09:49:10;;;;;;;14.43;9.82;;;10.40;93.30;;;;;;5054504;28;20046;-78
2022/03/13 09:51:36;;;;;;;12.10;9.68;;;10.50;92.70;;;;;;5054683;28;20044;-79
2022/03/13 09:54:02;;;;;;;13.95;9.70;;;10.60;92.20;;;;;;5071310;28;20582;-78
2022/03/13 09:56:29;;;;;;;13.63;9.80;;;10.70;91.70;;;;;;5071843;28;20098;-78
2022/03/13 09:58:54;;;;;;;;;;;10.80;91.30;;;;;;5030100;28;20487;-79
2022/03/13 10:01:20;;;;;;;13.27;9.50;;;10.90;91.10;;;;;;5071401;28;19923;-79
2022/03/13 10:03:46;;;;;;;11.68;9.50;;;11.00;91.20;;;;;;5059856;28;20093;-79
2022/03/13 10:06:12;;;;;;;12.88;9.70;;;11.10;90.90;;;;;;5071522;28;20114;-79
2022/03/13 10:08:38;;;;;;;14.90;10.48;;;11.20;90.50;;;;;;5070799;28;20139;-79
2022/03/13 10:11:04;;;;;;;11.43;9.05;;;11.30;90.50;;;;;;5054272;28;20076;-78
2022/03/13 10:13:36;;;;;;;11.25;9.27;;;11.40;91.00;;;;;;5070069;28;20381;-78
2022/03/13 10:16:03;;;;;;;13.27;9.90;;;11.50;90.80;;;;;;5068442;28;20484;-79
2022/03/13 10:18:29;;;;;;;14.68;10.60;;;11.60;89.20;;;;;;5070708;28;20105;-78
2022/03/13 10:20:56;;;;;;;12.93;9.35;;;11.60;89.80;;;;;;5070969;28;20052;-78
2022/03/13 10:23:23;;;;;;;12.88;9.98;;;11.70;90.10;;;;;;5062281;28;20091;-78
2022/03/13 10:25:51;;;;;;;13.77;9.95;;;11.80;88.20;;;;;;5070825;28;20553;-78
2022/03/13 10:28:21;;;;;;;15.20;9.98;;;11.90;88.50;;;;;;5053429;28;20036;-78
2022/03/13 10:30:59;;;;;;;13.40;10.20;;;12.00;88.70;;;;;;5070857;28;20500;-78
2022/03/13 10:33:35;;;;;;;12.00;9.93;;;12.10;88.30;;;;;;5070188;28;20343;-78
2022/03/13 10:36:16;;;;;;;11.63;9.13;;;12.30;87.40;;;;;;5052774;28;20044;-78
2022/03/13 10:38:43;;;;;;;12.38;9.43;;;12.40;86.70;;;;;;5070499;28;20056;-77
2022/03/13 10:41:10;;;;;;;11.88;9.05;;;12.50;86.60;;;;;;5070509;28;20044;-78
2022/03/13 10:43:47;;;;;;;12.73;9.95;;;12.70;86.80;;;;;;5053733;28;20040;-78
2022/03/13 10:46:27;;;;;;;10.55;7.88;;;13.00;85.40;;;;;;5053113;28;20049;-78
2022/03/13 10:48:54;;;;;;;12.80;8.65;;;13.30;87.30;;;;;;5052829;28;20033;-77
2022/03/13 10:51:35;;;;;;;13.57;9.77;;;13.70;86.60;;;;;;5053422;28;20041;-78
2022/03/13 10:54:02;;;;;;;12.98;9.50;;;14.00;82.80;;;;;;5046524;28;20040;-78
2022/03/13 10:56:28;;;;;;;12.95;9.93;;;14.30;81.20;;;;;;5053552;28;20052;-78
2022/03/13 10:58:54;;;;;;;16.83;10.02;;;14.40;80.10;;;;;;5069516;28;20119;-78
2022/03/13 11:01:22;;;;;;;14.20;10.38;;;14.60;78.60;;;;;;5028246;28;20120;-77
2022/03/13 11:04:07;;;;;;;13.00;10.10;;;14.80;77.80;;;;;;5069296;28;20054;-78
2022/03/13 11:06:33;;;;;;;11.52;9.60;;;15.10;78.80;;;;;;5065883;28;20033;-78
2022/03/13 11:08:59;;;;;;;;;;;15.20;77.50;;;;;;5053372;28;20095;-77
2022/03/13 11:11:29;;;;;;;13.35;10.52;;;15.40;76.80;;;;;;5053058;28;19916;-77
2022/03/13 11:13:59;;;;;;;14.60;10.35;;;15.60;76.40;;;;;;5069604;28;20040;-78
2022/03/13 11:16:32;;;;;;;13.55;10.05;;;15.70;75.60;;;;;;5052649;28;20052;-78
2022/03/13 11:19:02;;;;;;;12.63;10.10;;;15.80;75.20;;;;;;5052718;28;20042;-78
2022/03/13 11:21:28;;;;;;;12.18;9.55;;;16.00;74.60;;;;;;5069515;28;20117;-78
2022/03/13 11:23:55;;;;;;;10.07;8.43;;;16.30;75.40;;;;;;5069538;28;20087;-78
2022/03/13 11:26:24;;;;;;;9.65;7.90;;;16.60;74.30;;;;;;5052157;28;20067;-79
2022/03/13 11:28:51;;;;;;;10.73;9.00;;;16.80;74.60;;;;;;5053029;28;20499;-78
2022/03/13 11:31:49;;;;;;;10.98;9.15;;;16.90;72.40;;;;;;5068741;28;20129;-79
2022/03/13 11:34:18;;;;;;;17.05;10.00;;;17.20;72.70;;;;;;5049942;28;20052;-78
2022/03/13 11:36:44;;;;;;;13.60;9.90;;;17.00;71.20;;;;;;5052275;28;20483;-78
2022/03/13 11:39:13;;;;;;;13.02;9.05;;;17.00;70.10;;;;;;5052372;28;20043;-78
2022/03/13 11:41:47;;;;;;;12.07;8.82;;;16.90;69.50;;;;;;5061039;28;20036;-78
2022/03/13 11:44:21;;;;;;;11.77;9.45;;;16.90;69.30;;;;;;5068708;28;20041;-78
2022/03/13 11:46:49;;;;;;;12.20;9.30;;;17.10;69.40;;;;;;5068816;28;20072;-78
2022/03/13 11:49:29;;;;;;;12.60;9.65;;;17.20;69.10;;;;;;5068943;28;20048;-78
2022/03/13 11:52:10;;;;;;;11.48;9.20;;;17.10;68.40;;;;;;5068852;28;20329;-78
2022/03/13 11:54:52;;;;;;;12.00;9.25;;;17.00;67.90;;;;;;5052136;28;20524;-78
2022/03/13 11:57:38;;;;;;;12.60;9.57;;;17.00;68.80;;;;;;5051876;28;20043;-78
2022/03/13 12:00:28;;;;;;;11.40;8.77;;;17.20;68.40;;;;;;5045200;28;20044;-78
2022/03/13 12:03:06;;;;;;;10.60;8.77;;;17.20;68.10;;;;;;5068368;28;20430;-79
2022/03/13 12:05:33;;;;;;;11.50;9.43;;;17.20;67.80;;;;;;5068767;28;20048;-78
2022/03/13 12:08:06;;;;;;;12.98;9.48;;;17.10;67.10;;;;;;5068413;28;20668;-78
2022/03/13 12:10:41;;;;;;;11.18;8.55;;;17.10;66.60;;;;;;5068550;28;20052;-78
2022/03/13 12:13:12;;;;;;;11.88;8.80;;;17.00;67.00;;;;;;5068882;28;20044;-79
2022/03/13 12:15:41;;;;;;;11.52;8.63;;;17.10;67.00;;;;;;5068516;28;20045;-78
2022/03/13 12:18:25;;;;;;;10.80;8.80;;;17.20;67.40;;;;;;5052252;28;20484;-78
2022/03/13 12:20:52;;;;;;;11.20;8.43;;;17.20;66.70;;;;;;5069193;28;20155;-78
2022/03/13 12:23:33;;;;;;;10.98;9.02;;;17.20;66.40;;;;;;5068904;28;20080;-78
2022/03/13 12:26:18;;;;;;;11.20;8.77;;;17.20;65.60;;;;;;5068319;28;20448;-78
2022/03/13 12:28:45;;;;;;;10.20;8.40;;;17.20;65.70;;;;;;5052115;28;20368;-78
2022/03/13 12:31:11;;;;;;;13.48;9.60;;;17.10;65.30;;;;;;5068370;28;20043;-78
2022/03/13 12:33:38;;;;;;;;;;;17.00;65.20;;;;;;5069273;28;20083;-78
2022/03/13 12:36:04;;;;;;;10.90;9.02;;;17.10;65.60;;;;;;5051773;28;19959;-78
2022/03/13 12:38:32;;;;;;;11.65;8.68;;;17.30;65.60;;;;;;5068137;28;20067;-77
2022/03/13 12:41:00;;;;;;;11.63;9.05;;;17.30;65.60;;;;;;5051424;28;20120;-78
2022/03/13 12:43:49;;;;;;;11.30;9.32;;;17.30;64.80;;;;;;5051475;28;20055;-78
2022/03/13 12:46:17;;;;;;;12.02;9.10;;;17.40;64.40;;;;;;5051396;28;20036;-79